createdAt,value
2022-10-11T00:00:49.147Z,101011.66
2022-10-11T00:03:17.784Z,101014.34
2022-10-11T00:05:45.137Z,101009.25
2022-10-11T00:08:13.763Z,101007.03
2022-10-11T00:10:41.425Z,101005.72
2022-10-11T00:13:08.977Z,101003.88
2022-10-11T00:15:36.311Z,101004.84
2022-10-11T00:18:05.492Z,101008.06
2022-10-11T00:20:33.016Z,101005.91
2022-10-11T00:23:00.450Z,100995.97
2022-10-11T00:25:27.749Z,100989.47
2022-10-11T00:27:55.027Z,100981.66
2022-10-11T00:30:22.964Z,100974.75
2022-10-11T00:32:50.729Z,100989.19
2022-10-11T00:35:21.779Z,100987.03
2022-10-11T00:37:49.148Z,100985.50
2022-10-11T00:40:20.118Z,100987.63
2022-10-11T00:42:47.595Z,100983.81
2022-10-11T00:45:26.963Z,100987.28
2022-10-11T00:48:00.415Z,100979.19
2022-10-11T00:50:32.908Z,100984.88
2022-10-11T00:53:10.304Z,100990.28
2022-10-11T00:55:42.516Z,100986.47
2022-10-11T00:58:11.397Z,100988.63
2022-10-11T01:00:38.751Z,100977.13
2022-10-11T01:03:06.473Z,100975.47
2022-10-11T01:05:37.706Z,100971.94
2022-10-11T01:08:06.428Z,100970.41
2022-10-11T01:10:34.149Z,100968.28
2022-10-11T01:13:48.962Z,100954.19
2022-10-11T01:16:38.093Z,100956.97
2022-10-11T01:19:11.449Z,100955.84
2022-10-11T01:21:50.312Z,100951.03
2022-10-11T01:24:49.867Z,100940.25
2022-10-11T01:27:28.338Z,100947.16
2022-10-11T01:30:01.606Z,100952.59
2022-10-11T01:32:34.944Z,100953.72
2022-10-11T01:35:38.328Z,100943.88
2022-10-11T01:38:17.075Z,100954.38
2022-10-11T01:40:52.889Z,100955.19
2022-10-11T01:43:24.330Z,100945.91
2022-10-11T01:45:56.179Z,100944.06
2022-10-11T01:48:23.849Z,100950.47
2022-10-11T01:50:57.281Z,100951.81
2022-10-11T01:53:40.718Z,100951.50
2022-10-11T01:56:26.404Z,100946.75
2022-10-11T01:59:11.104Z,100942.94
2022-10-11T02:01:59.608Z,100952.19
2022-10-11T02:04:56.115Z,100941.56
2022-10-11T02:07:33.650Z,100947.81
2022-10-11T02:10:05.756Z,100940.88
2022-10-11T02:12:39.895Z,100943.56
2022-10-11T02:15:11.589Z,100950.31
2022-10-11T02:17:52.431Z,100945.47
2022-10-11T02:20:24.222Z,100949.22
2022-10-11T02:22:59.104Z,100938.19
2022-10-11T02:25:30.031Z,100935.00
2022-10-11T02:28:00.939Z,100929.09
2022-10-11T02:30:30.680Z,100945.75
2022-10-11T02:32:59.503Z,100941.72
2022-10-11T02:35:30.595Z,100944.69
2022-10-11T02:38:10.715Z,100945.56
2022-10-11T02:40:42.613Z,100939.88
2022-10-11T02:43:40.086Z,100931.81
2022-10-11T02:46:09.566Z,100933.38
2022-10-11T02:48:37.655Z,100929.13
2022-10-11T02:51:05.572Z,100937.00
2022-10-11T02:53:33.058Z,100927.00
2022-10-11T02:56:00.624Z,100927.84
2022-10-11T02:58:27.889Z,100925.69
2022-10-11T03:00:55.277Z,100922.47
2022-10-11T03:03:22.724Z,100935.63
2022-10-11T03:05:50.136Z,100930.72
2022-10-11T03:08:17.902Z,100933.94
2022-10-11T03:10:45.319Z,100937.16
2022-10-11T03:13:17.255Z,100940.59
2022-10-11T03:16:02.669Z,100939.28
2022-10-11T03:18:31.465Z,100926.97
2022-10-11T03:20:58.762Z,100920.59
2022-10-11T03:23:26.567Z,100919.78
2022-10-11T03:25:53.913Z,100910.88
2022-10-11T03:28:22.094Z,100921.94
2022-10-11T03:30:53.421Z,100918.47
2022-10-11T03:33:20.916Z,100917.09
2022-10-11T03:35:49.097Z,100911.91
2022-10-11T03:38:20.276Z,100915.94
2022-10-11T03:40:48.078Z,100911.91
2022-10-11T03:43:15.715Z,100917.34
2022-10-11T03:45:43.011Z,100921.91
2022-10-11T03:48:10.621Z,100924.69
2022-10-11T03:50:38.674Z,100918.25
2022-10-11T03:53:07.450Z,100913.69
2022-10-11T03:55:35.115Z,100907.13
2022-10-11T03:58:02.512Z,100906.22
2022-10-11T04:00:30.273Z,100913.53
2022-10-11T04:03:11.083Z,100908.94
2022-10-11T04:05:38.446Z,100913.25
2022-10-11T04:08:11.113Z,100918.41
2022-10-11T04:10:39.765Z,100921.53
2022-10-11T04:13:11.383Z,100931.75
2022-10-11T04:15:40.127Z,100928.88
2022-10-11T04:18:08.784Z,100922.53
2022-10-11T04:20:46.504Z,100926.41
2022-10-11T04:23:15.917Z,100924.88
2022-10-11T04:25:44.169Z,100940.56
2022-10-11T04:28:12.237Z,100928.94
2022-10-11T04:30:40.075Z,100924.38
2022-10-11T04:33:15.856Z,100923.38
2022-10-11T04:35:43.835Z,100931.97
2022-10-11T04:38:14.789Z,100934.41
2022-10-11T04:40:42.083Z,100933.09
2022-10-11T04:43:09.459Z,100928.81
2022-10-11T04:45:42.131Z,100931.47
2022-10-11T04:48:15.948Z,100937.91
2022-10-11T04:50:49.559Z,100940.09
2022-10-11T04:53:16.851Z,100935.22
2022-10-11T04:55:58.397Z,100933.09
2022-10-11T04:58:26.220Z,100943.59
2022-10-11T05:00:53.880Z,100940.09
2022-10-11T05:03:21.628Z,100937.13
2022-10-11T05:05:50.156Z,100935.00
2022-10-11T05:08:20.678Z,100933.88
2022-10-11T05:11:07.561Z,100928.50
2022-10-11T05:13:42.307Z,100922.59
2022-10-11T05:16:11.305Z,100925.03
2022-10-11T05:18:39.716Z,100927.16
2022-10-11T05:21:16.050Z,100926.09
2022-10-11T05:23:43.720Z,100919.38
2022-10-11T05:26:11.113Z,100916.41
2022-10-11T05:28:41.649Z,100914.78
2022-10-11T05:31:09.598Z,100916.41
2022-10-11T05:33:37.722Z,100914.22
2022-10-11T05:36:06.759Z,100914.22
2022-10-11T05:38:38.472Z,100917.69
2022-10-11T05:41:06.320Z,100924.41
2022-10-11T05:43:33.644Z,100927.63
2022-10-11T05:46:01.758Z,100923.28
2022-10-11T05:48:29.289Z,100923.53
2022-10-11T05:51:01.698Z,100923.78
2022-10-11T05:53:29.430Z,100921.09
2022-10-11T05:55:57.037Z,100918.94
2022-10-11T05:58:25.254Z,100915.69
2022-10-11T06:00:52.883Z,100912.47
2022-10-11T06:03:20.561Z,100914.81
2022-10-11T06:06:03.124Z,100922.06
2022-10-11T06:08:30.819Z,100923.44
2022-10-11T06:11:15.541Z,100922.44
2022-10-11T06:13:44.133Z,100922.44
2022-10-11T06:16:14.314Z,100918.91
2022-10-11T06:18:41.959Z,100923.25
2022-10-11T06:21:09.255Z,100924.00
2022-10-11T06:23:39.488Z,100915.13
2022-10-11T06:26:15.072Z,100910.28
2022-10-11T06:28:42.757Z,100908.38
2022-10-11T06:31:13.202Z,100916.97
2022-10-11T06:33:40.545Z,100919.44
2022-10-11T06:36:12.946Z,100926.63
2022-10-11T06:38:45.368Z,100923.44
2022-10-11T06:41:17.831Z,100926.91
2022-10-11T06:43:52.160Z,100933.34
2022-10-11T06:46:21.047Z,100937.88
2022-10-11T06:48:49.253Z,100945.06
2022-10-11T06:51:22.161Z,100950.72
2022-10-11T06:53:57.353Z,100954.19
2022-10-11T06:56:26.655Z,100964.38
2022-10-11T06:58:58.668Z,100969.78
2022-10-11T07:01:31.976Z,100983.50
2022-10-11T07:03:59.614Z,100978.38
2022-10-11T07:06:30.840Z,100971.25
2022-10-11T07:09:00.398Z,100971.69
2022-10-11T07:11:31.234Z,100971.69
2022-10-11T07:14:02.278Z,100971.13
2022-10-11T07:16:29.713Z,100977.56
2022-10-11T07:19:00.778Z,100979.97
2022-10-11T07:21:31.465Z,100980.78
2022-10-11T07:23:59.902Z,100977.00
2022-10-11T07:26:35.256Z,100978.56
2022-10-11T07:29:06.762Z,100979.09
2022-10-11T07:31:36.815Z,100977.78
2022-10-11T07:34:07.415Z,100975.13
2022-10-11T07:36:37.477Z,100981.28
2022-10-11T07:39:09.424Z,100972.31
2022-10-11T07:41:46.067Z,100969.91
2022-10-11T07:44:17.063Z,100964.56
2022-10-11T07:46:53.401Z,100976.34
2022-10-11T07:49:24.057Z,100974.97
2022-10-11T07:51:51.332Z,100983.06
2022-10-11T07:54:22.325Z,100989.44
2022-10-11T07:56:52.743Z,100978.81
2022-10-11T07:59:23.148Z,100989.13
2022-10-11T08:01:56.599Z,100984.81
2022-10-11T08:04:30.612Z,100990.25
2022-10-11T08:06:59.367Z,100988.19
2022-10-11T08:09:30.219Z,100984.19
2022-10-11T08:11:58.611Z,100977.69
2022-10-11T08:14:35.221Z,100979.03
2022-10-11T08:17:08.993Z,100978.97
2022-10-11T08:19:41.869Z,100982.06
2022-10-11T08:22:09.244Z,100982.28
2022-10-11T08:24:42.070Z,100979.66
2022-10-11T08:27:09.405Z,100981.72
2022-10-11T08:29:42.894Z,100986.53
2022-10-11T08:32:13.135Z,100982.53
2022-10-11T08:34:44.885Z,100988.09
2022-10-11T08:37:16.748Z,100989.91
2022-10-11T08:39:46.908Z,100989.22
2022-10-11T08:42:39.332Z,100989.75
2022-10-11T08:45:30.008Z,100990.50
2022-10-11T08:48:17.848Z,100988.47
2022-10-11T08:50:50.029Z,100987.00
2022-10-11T08:53:40.962Z,100986.78
2022-10-11T08:56:13.981Z,100988.59
2022-10-11T08:58:54.158Z,100992.03
2022-10-11T09:01:24.924Z,100985.84
2022-10-11T09:03:53.940Z,100980.16
2022-10-11T09:06:32.096Z,100971.13
2022-10-11T09:09:11.549Z,100967.78
2022-10-11T09:12:21.077Z,100964.81
2022-10-11T09:15:36.824Z,100958.97
2022-10-11T09:18:13.208Z,100959.28
2022-10-11T09:20:59.435Z,100951.53
2022-10-11T09:24:04.298Z,100958.19
2022-10-11T09:26:56.816Z,100966.72
2022-10-11T09:29:46.004Z,100965.03
2022-10-11T09:32:16.713Z,100964.19
2022-10-11T09:34:53.033Z,100961.13
2022-10-11T09:37:27.607Z,100960.69
2022-10-11T09:40:06.841Z,100955.84
2022-10-11T09:42:37.117Z,100955.31
2022-10-11T09:45:18.036Z,100953.09
2022-10-11T09:47:49.664Z,100953.53
2022-10-11T09:50:23.909Z,100958.44
2022-10-11T09:53:03.977Z,100955.22
2022-10-11T09:55:42.922Z,100956.22
2022-10-11T09:58:39.510Z,100949.69
2022-10-11T10:01:09.991Z,100947.41
2022-10-11T10:03:41.042Z,100940.31
2022-10-11T10:06:29.305Z,100943.34
2022-10-11T10:09:25.775Z,100935.38
2022-10-11T10:11:58.477Z,100936.59
2022-10-11T10:14:34.713Z,100931.59
2022-10-11T10:17:15.361Z,100929.81
2022-10-11T10:19:53.179Z,100929.38
2022-10-11T10:22:30.985Z,100935.16
2022-10-11T10:25:02.281Z,100930.88
2022-10-11T10:27:33.813Z,100914.47
2022-10-11T10:30:15.474Z,100904.34
2022-10-11T10:32:48.851Z,100908.66
2022-10-11T10:35:42.915Z,100903.66
2022-10-11T10:38:32.665Z,100903.66
2022-10-11T10:41:11.802Z,100905.66
2022-10-11T10:43:45.417Z,100899.03
2022-10-11T10:46:34.156Z,100895.25
2022-10-11T10:49:41.201Z,100897.88
2022-10-11T10:52:38.208Z,100890.03
2022-10-11T10:55:28.091Z,100891.22
2022-10-11T10:58:24.911Z,100888.41
2022-10-11T11:01:14.840Z,100877.50
2022-10-11T11:03:59.838Z,100879.22
2022-10-11T11:07:03.884Z,100875.91
2022-10-11T11:09:49.595Z,100875.59
2022-10-11T11:12:35.417Z,100876.91
2022-10-11T11:15:32.610Z,100889.06
2022-10-11T11:18:30.904Z,100884.53
2022-10-11T11:21:26.428Z,100888.53
2022-10-11T11:24:15.536Z,100882.50
2022-10-11T11:26:55.289Z,100890.84
2022-10-11T11:29:48.985Z,100884.19
2022-10-11T11:32:56.917Z,100874.41
2022-10-11T11:35:48.744Z,100881.78
2022-10-11T11:38:42.662Z,100877.03
2022-10-11T11:41:23.087Z,100877.22
2022-10-11T11:44:00.577Z,100870.91
2022-10-11T11:46:57.236Z,100870.09
2022-10-11T11:49:34.165Z,100867.56
2022-10-11T11:52:02.938Z,100872.44
2022-10-11T11:54:51.932Z,100862.22
2022-10-11T11:57:39.147Z,100854.97
2022-10-11T12:00:17.729Z,100853.72
2022-10-11T12:03:25.694Z,100849.53
2022-10-11T12:06:19.716Z,100850.09
2022-10-11T12:08:59.333Z,100855.19
2022-10-11T12:11:41.126Z,100854.72
2022-10-11T12:14:25.415Z,100861.25
2022-10-11T12:17:14.221Z,100857.44
2022-10-11T12:20:10.854Z,100857.56
2022-10-11T12:22:55.144Z,100854.69
2022-10-11T12:25:22.915Z,100853.91
2022-10-11T12:27:53.663Z,100858.50
2022-10-11T12:30:42.697Z,100849.63
2022-10-11T12:33:52.464Z,100849.00
2022-10-11T12:36:28.998Z,100854.25
2022-10-11T12:39:20.511Z,100850.88
2022-10-11T12:42:05.976Z,100855.03
2022-10-11T12:44:33.600Z,100851.53
2022-10-11T12:47:32.014Z,100846.91
2022-10-11T12:50:22.907Z,100842.47
2022-10-11T12:53:05.436Z,100844.03
2022-10-11T12:55:39.005Z,100841.00
2022-10-11T12:58:27.851Z,100845.00
2022-10-11T13:00:55.324Z,100840.44
2022-10-11T13:03:41.424Z,100838.88
2022-10-11T13:06:19.489Z,100840.06
2022-10-11T13:08:55.264Z,100843.25
2022-10-11T13:11:27.869Z,100838.06
2022-10-11T13:13:57.744Z,100835.44
2022-10-11T13:16:29.070Z,100832.66
2022-10-11T13:19:00.222Z,100833.19
2022-10-11T13:21:30.606Z,100838.59
2022-10-11T13:24:04.413Z,100836.38
2022-10-11T13:26:37.793Z,100832.50
2022-10-11T13:29:18.913Z,100834.22
2022-10-11T13:31:48.271Z,100842.19
2022-10-11T13:34:23.471Z,100825.56
2022-10-11T13:36:58.593Z,100826.34
2022-10-11T13:39:31.788Z,100829.88
2022-10-11T13:42:01.098Z,100829.53
2022-10-11T13:44:33.410Z,100828.88
2022-10-11T13:47:03.825Z,100831.56
2022-10-11T13:49:36.946Z,100820.94
2022-10-11T13:52:19.747Z,100827.16
2022-10-11T13:54:56.562Z,100829.88
2022-10-11T13:57:44.186Z,100820.75
2022-10-11T14:00:18.010Z,100825.97
2022-10-11T14:02:55.473Z,100824.88
2022-10-11T14:05:30.431Z,100824.22
2022-10-11T14:08:07.884Z,100830.63
2022-10-11T14:10:52.811Z,100820.63
2022-10-11T14:13:32.658Z,100832.66
2022-10-11T14:16:22.377Z,100825.06
2022-10-11T14:19:02.097Z,100825.06
2022-10-11T14:21:49.301Z,100824.66
2022-10-11T14:24:19.470Z,100816.69
2022-10-11T14:26:52.512Z,100820.47
2022-10-11T14:29:26.471Z,100813.97
2022-10-11T14:32:00.848Z,100814.56
2022-10-11T14:34:31.663Z,100817.88
2022-10-11T14:36:59.920Z,100820.09
2022-10-11T14:39:30.253Z,100810.97
2022-10-11T14:41:58.754Z,100820.09
2022-10-11T14:44:28.858Z,100812.09
2022-10-11T14:46:59.397Z,100808.88
2022-10-11T14:49:30.002Z,100814.91
2022-10-11T14:52:02.029Z,100813.25
2022-10-11T14:54:30.540Z,100817.59
2022-10-11T14:57:01.572Z,100824.72
2022-10-11T14:59:33.427Z,100821.03
2022-10-11T15:02:01.639Z,100826.94
2022-10-11T15:04:29.206Z,100817.25
2022-10-11T15:06:57.545Z,100821.03
2022-10-11T15:09:25.721Z,100822.69
2022-10-11T15:11:54.191Z,100819.00
2022-10-11T15:14:25.325Z,100819.53
2022-10-11T15:16:52.848Z,100815.31
2022-10-11T15:19:22.347Z,100822.63
2022-10-11T15:21:50.209Z,100813.72
2022-10-11T15:24:17.673Z,100816.91
2022-10-11T15:26:44.978Z,100814.13
2022-10-11T15:29:14.116Z,100810.31
2022-10-11T15:31:41.376Z,100818.72
2022-10-11T15:34:08.729Z,100821.16
2022-10-11T15:36:36.033Z,100812.94
2022-10-11T15:39:03.597Z,100819.84
2022-10-11T15:41:31.072Z,100815.34
2022-10-11T15:43:58.347Z,100824.75
2022-10-11T15:46:25.749Z,100824.34
2022-10-11T15:48:53.263Z,100822.34
2022-10-11T15:51:20.726Z,100825.53
2022-10-11T15:53:48.026Z,100819.53
2022-10-11T15:56:17.206Z,100819.13
2022-10-11T15:58:45.274Z,100820.53
2022-10-11T16:01:19.259Z,100825.72
2022-10-11T16:03:48.941Z,100826.03
2022-10-11T16:06:18.301Z,100826.75
2022-10-11T16:08:45.977Z,100829.44
2022-10-11T16:11:13.622Z,100833.75
2022-10-11T16:13:41.327Z,100843.19
2022-10-11T16:16:09.946Z,100831.78
2022-10-11T16:18:38.116Z,100837.16
2022-10-11T16:21:09.330Z,100832.75
2022-10-11T16:23:36.923Z,100842.84
2022-10-11T16:26:07.006Z,100843.13
2022-10-11T16:28:34.971Z,100847.91
2022-10-11T16:31:07.757Z,100848.69
2022-10-11T16:33:35.292Z,100851.94
2022-10-11T16:36:06.320Z,100852.09
2022-10-11T16:38:33.992Z,100851.56
2022-10-11T16:41:05.881Z,100848.84
2022-10-11T16:43:33.268Z,100866.13
2022-10-11T16:46:00.582Z,100864.75
2022-10-11T16:48:27.931Z,100867.69
2022-10-11T16:51:05.179Z,100862.38
2022-10-11T16:53:36.235Z,100866.56
2022-10-11T16:56:08.522Z,100867.69
2022-10-11T16:58:36.761Z,100863.91
2022-10-11T17:01:09.359Z,100870.66
2022-10-11T17:03:37.388Z,100870.72
2022-10-11T17:06:06.365Z,100870.84
2022-10-11T17:08:34.080Z,100872.50
2022-10-11T17:11:02.368Z,100867.72
2022-10-11T17:13:29.878Z,100872.22
2022-10-11T17:16:01.131Z,100866.22
2022-10-11T17:18:28.514Z,100868.28
2022-10-11T17:21:07.998Z,100870.63
2022-10-11T17:23:36.426Z,100867.81
2022-10-11T17:26:11.415Z,100875.81
2022-10-11T17:28:39.270Z,100875.88
2022-10-11T17:31:08.167Z,100881.34
2022-10-11T17:33:36.238Z,100875.16
2022-10-11T17:36:18.622Z,100873.56
2022-10-11T17:38:46.112Z,100879.03
2022-10-11T17:41:13.500Z,100876.13
2022-10-11T17:43:40.997Z,100884.00
2022-10-11T17:46:10.268Z,100879.91
2022-10-11T17:48:38.148Z,100877.94
2022-10-11T17:51:17.171Z,100875.84
2022-10-11T17:53:46.861Z,100880.72
2022-10-11T17:56:28.175Z,100880.34
2022-10-11T17:58:58.919Z,100882.09
2022-10-11T18:01:28.922Z,100885.25
2022-10-11T18:03:59.073Z,100884.66
2022-10-11T18:06:28.320Z,100884.66
2022-10-11T18:08:56.795Z,100879.75
2022-10-11T18:11:25.347Z,100878.91
2022-10-11T18:13:53.132Z,100871.91
2022-10-11T18:16:23.445Z,100881.72
2022-10-11T18:18:51.071Z,100882.63
2022-10-11T18:21:18.521Z,100881.81
2022-10-11T18:23:46.311Z,100882.47
2022-10-11T18:26:18.809Z,100886.41
2022-10-11T18:28:47.218Z,100886.94
2022-10-11T18:31:18.991Z,100880.81
2022-10-11T18:33:47.121Z,100878.59
2022-10-11T18:36:15.955Z,100877.22
2022-10-11T18:38:48.404Z,100879.34
2022-10-11T18:41:18.606Z,100887.00
2022-10-11T18:43:55.238Z,100878.38
2022-10-11T18:46:23.747Z,100880.50
2022-10-11T18:48:55.596Z,100877.44
2022-10-11T18:51:32.736Z,100876.22
2022-10-11T18:54:05.335Z,100885.41
2022-10-11T18:56:37.758Z,100878.03
2022-10-11T18:59:13.554Z,100883.94
2022-10-11T19:01:43.459Z,100887.44
2022-10-11T19:04:15.085Z,100883.63
2022-10-11T19:06:46.339Z,100887.56
2022-10-11T19:09:18.322Z,100884.72
2022-10-11T19:11:48.603Z,100885.50
2022-10-11T19:14:20.298Z,100891.16
2022-10-11T19:16:54.791Z,100889.75
2022-10-11T19:19:25.318Z,100893.03
2022-10-11T19:21:55.892Z,100887.72
2022-10-11T19:24:26.043Z,100890.56
2022-10-11T19:27:02.275Z,100892.88
2022-10-11T19:29:31.867Z,100892.97
2022-10-11T19:32:00.856Z,100889.31
2022-10-11T19:34:28.794Z,100892.53
2022-10-11T19:36:56.811Z,100899.88
2022-10-11T19:39:28.284Z,100894.28
2022-10-11T19:41:55.626Z,100890.91
2022-10-11T19:44:23.037Z,100902.28
2022-10-11T19:46:51.853Z,100901.69
2022-10-11T19:49:21.884Z,100902.56
2022-10-11T19:51:49.342Z,100903.44
2022-10-11T19:54:19.311Z,100901.22
2022-10-11T19:56:47.498Z,100901.78
2022-10-11T19:59:17.588Z,100899.44
2022-10-11T20:01:49.622Z,100895.88
2022-10-11T20:04:47.110Z,100904.00
2022-10-11T20:07:07.400Z,100905.63
2022-10-11T20:09:37.101Z,100901.66
2022-10-11T20:12:04.626Z,100899.31
2022-10-11T20:14:35.361Z,100906.56
2022-10-11T20:17:02.765Z,100903.00
2022-10-11T20:19:31.217Z,100904.69
2022-10-11T20:22:00.325Z,100900.88
2022-10-11T20:24:28.350Z,100904.97
2022-10-11T20:26:55.674Z,100901.53
2022-10-11T20:29:26.368Z,100911.50
2022-10-11T20:31:53.703Z,100906.19
2022-10-11T20:34:23.919Z,100910.53
2022-10-11T20:36:51.137Z,100906.41
2022-10-11T20:39:18.516Z,100911.16
2022-10-11T20:41:46.039Z,100916.56
2022-10-11T20:44:13.754Z,100911.97
2022-10-11T20:46:41.343Z,100914.28
2022-10-11T20:49:10.647Z,100909.91
2022-10-11T20:51:41.779Z,100914.28
2022-10-11T20:54:09.728Z,100914.91
2022-10-11T20:56:37.731Z,100905.44
2022-10-11T20:59:05.050Z,100907.94
2022-10-11T21:01:38.030Z,100916.06
2022-10-11T21:04:07.886Z,100907.13
2022-10-11T21:06:35.219Z,100909.81
2022-10-11T21:09:02.529Z,100911.53
2022-10-11T21:11:35.815Z,100912.03
2022-10-11T21:14:19.778Z,100904.25
2022-10-11T21:16:47.219Z,100898.38
2022-10-11T21:19:15.243Z,100897.81
2022-10-11T21:21:42.889Z,100901.53
2022-10-11T21:24:10.159Z,100904.50
2022-10-11T21:26:37.509Z,100905.50
2022-10-11T21:29:05.024Z,100898.03
2022-10-11T21:31:34.297Z,100901.94
2022-10-11T21:34:02.900Z,100899.25
2022-10-11T21:36:30.281Z,100903.03
2022-10-11T21:39:01.303Z,100907.84
2022-10-11T21:41:35.085Z,100907.34
2022-10-11T21:44:05.023Z,100899.19
2022-10-11T21:47:01.373Z,100904.09
2022-10-11T21:49:20.168Z,100903.56
2022-10-11T21:51:47.517Z,100893.91
2022-10-11T21:54:14.936Z,100907.34
2022-10-11T21:56:42.398Z,100905.72
2022-10-11T21:59:12.321Z,100910.63
2022-10-11T22:01:41.266Z,100913.84
2022-10-11T22:04:09.529Z,100909.56
2022-10-11T22:06:39.876Z,100913.38
2022-10-11T22:09:07.739Z,100907.78
2022-10-11T22:11:35.842Z,100920.72
2022-10-11T22:14:04.012Z,100919.09
2022-10-11T22:16:36.086Z,100922.66
2022-10-11T22:19:04.153Z,100920.81
2022-10-11T22:21:31.745Z,100917.88
2022-10-11T22:23:59.118Z,100918.19
2022-10-11T22:26:29.135Z,100921.91
2022-10-11T22:28:58.168Z,100920.88
2022-10-11T22:31:26.581Z,100924.66
2022-10-11T22:33:55.664Z,100920.91
2022-10-11T22:36:23.152Z,100924.66
2022-10-11T22:38:51.151Z,100924.16
2022-10-11T22:41:18.449Z,100926.06
2022-10-11T22:43:45.744Z,100931.72
2022-10-11T22:46:13.011Z,100923.41
2022-10-11T22:48:40.376Z,100928.22
2022-10-11T22:51:07.955Z,100927.19
2022-10-11T22:53:35.262Z,100924.75
2022-10-11T22:56:02.594Z,100941.19
2022-10-11T22:58:29.896Z,100935.66
2022-10-11T23:00:57.739Z,100936.81
2022-10-11T23:03:25.057Z,100932.56
2022-10-11T23:05:57.526Z,100935.91
2022-10-11T23:08:25.197Z,100932.03
2022-10-11T23:10:52.968Z,100935.22
2022-10-11T23:13:21.372Z,100932.63
2022-10-11T23:15:48.822Z,100926.22
2022-10-11T23:18:16.572Z,100929.00
2022-10-11T23:20:44.536Z,100923.78
2022-10-11T23:23:12.108Z,100928.94
2022-10-11T23:25:42.088Z,100926.28
2022-10-11T23:28:09.431Z,100922.97
2022-10-11T23:30:39.577Z,100923.06
2022-10-11T23:33:07.031Z,100929.50
2022-10-11T23:35:34.868Z,100928.53
2022-10-11T23:38:02.248Z,100922.63
2022-10-11T23:40:29.573Z,100931.50
2022-10-11T23:42:57.153Z,100932.00
2022-10-11T23:45:24.460Z,100926.13
2022-10-11T23:47:51.804Z,100928.81
2022-10-11T23:50:19.174Z,100925.31
2022-10-11T23:52:46.562Z,100927.72
2022-10-11T23:55:14.110Z,100927.41
2022-10-11T23:57:41.730Z,100927.44
